sensor_id;sensor_type;location;lat;lon;timestamp;P1;durP1;ratioP1;P2;durP2;ratioP2
78877;SDS011;68257;43.514;1.498;2024-01-07T00:01:59;4.57;;;2.17;;
78877;SDS011;68257;43.514;1.498;2024-01-07T00:04:24;5.13;;;2.38;;
78877;SDS011;68257;43.514;1.498;2024-01-07T00:06:49;4.72;;;2.20;;
78877;SDS011;68257;43.514;1.498;2024-01-07T00:09:15;6.03;;;2.10;;
78877;SDS011;68257;43.514;1.498;2024-01-07T00:11:41;5.93;;;2.50;;
78877;SDS011;68257;43.514;1.498;2024-01-07T00:14:07;4.10;;;2.25;;
78877;SDS011;68257;43.514;1.498;2024-01-07T00:16:32;5.33;;;2.53;;
78877;SDS011;68257;43.514;1.498;2024-01-07T00:18:57;5.77;;;2.27;;
78877;SDS011;68257;43.514;1.498;2024-01-07T00:21:23;5.17;;;2.50;;
78877;SDS011;68257;43.514;1.498;2024-01-07T00:23:49;4.60;;;2.22;;
78877;SDS011;68257;43.514;1.498;2024-01-07T00:26:14;5.43;;;2.43;;
78877;SDS011;68257;43.514;1.498;2024-01-07T00:28:40;6.60;;;2.87;;
78877;SDS011;68257;43.514;1.498;2024-01-07T00:31:05;3.83;;;2.20;;
78877;SDS011;68257;43.514;1.498;2024-01-07T00:33:34;4.40;;;2.20;;
78877;SDS011;68257;43.514;1.498;2024-01-07T00:35:59;4.28;;;2.20;;
78877;SDS011;68257;43.514;1.498;2024-01-07T00:38:25;5.23;;;2.27;;
78877;SDS011;68257;43.514;1.498;2024-01-07T00:40:50;5.53;;;2.30;;
78877;SDS011;68257;43.514;1.498;2024-01-07T00:43:16;4.57;;;2.40;;
78877;SDS011;68257;43.514;1.498;2024-01-07T00:45:41;5.63;;;2.60;;
78877;SDS011;68257;43.514;1.498;2024-01-07T00:48:06;4.87;;;2.20;;
78877;SDS011;68257;43.514;1.498;2024-01-07T00:50:32;5.50;;;2.55;;
78877;SDS011;68257;43.514;1.498;2024-01-07T00:52:57;5.30;;;2.10;;
78877;SDS011;68257;43.514;1.498;2024-01-07T00:55:22;4.57;;;2.23;;
78877;SDS011;68257;43.514;1.498;2024-01-07T00:57:48;4.60;;;2.38;;
78877;SDS011;68257;43.514;1.498;2024-01-07T01:00:14;5.73;;;2.50;;
78877;SDS011;68257;43.514;1.498;2024-01-07T01:02:40;6.28;;;2.42;;
78877;SDS011;68257;43.514;1.498;2024-01-07T01:05:05;5.07;;;2.37;;
78877;SDS011;68257;43.514;1.498;2024-01-07T01:07:31;6.70;;;2.70;;
78877;SDS011;68257;43.514;1.498;2024-01-07T01:09:57;4.80;;;2.50;;
78877;SDS011;68257;43.514;1.498;2024-01-07T01:12:23;5.28;;;2.50;;
78877;SDS011;68257;43.514;1.498;2024-01-07T01:14:48;5.53;;;2.38;;
78877;SDS011;68257;43.514;1.498;2024-01-07T01:17:14;5.00;;;2.70;;
78877;SDS011;68257;43.514;1.498;2024-01-07T01:19:39;5.53;;;3.13;;
78877;SDS011;68257;43.514;1.498;2024-01-07T01:22:05;5.67;;;2.83;;
78877;SDS011;68257;43.514;1.498;2024-01-07T01:24:30;6.90;;;3.13;;
78877;SDS011;68257;43.514;1.498;2024-01-07T01:26:55;6.50;;;2.90;;
78877;SDS011;68257;43.514;1.498;2024-01-07T01:29:21;8.07;;;3.08;;
78877;SDS011;68257;43.514;1.498;2024-01-07T01:31:46;5.87;;;2.77;;
78877;SDS011;68257;43.514;1.498;2024-01-07T01:34:11;6.13;;;3.00;;
78877;SDS011;68257;43.514;1.498;2024-01-07T01:36:37;7.07;;;2.80;;
78877;SDS011;68257;43.514;1.498;2024-01-07T01:39:02;5.13;;;2.90;;
78877;SDS011;68257;43.514;1.498;2024-01-07T01:41:28;7.13;;;2.90;;
78877;SDS011;68257;43.514;1.498;2024-01-07T01:43:57;6.25;;;2.70;;
78877;SDS011;68257;43.514;1.498;2024-01-07T01:46:23;6.10;;;3.05;;
78877;SDS011;68257;43.514;1.498;2024-01-07T01:48:49;6.80;;;2.50;;
78877;SDS011;68257;43.514;1.498;2024-01-07T01:51:14;5.80;;;2.57;;
78877;SDS011;68257;43.514;1.498;2024-01-07T01:53:39;5.63;;;2.85;;
78877;SDS011;68257;43.514;1.498;2024-01-07T01:56:05;5.40;;;2.65;;
78877;SDS011;68257;43.514;1.498;2024-01-07T01:58:31;6.47;;;2.70;;
78877;SDS011;68257;43.514;1.498;2024-01-07T02:00:57;6.65;;;3.20;;
78877;SDS011;68257;43.514;1.498;2024-01-07T02:03:23;4.97;;;2.80;;
78877;SDS011;68257;43.514;1.498;2024-01-07T02:05:48;8.63;;;3.57;;
78877;SDS011;68257;43.514;1.498;2024-01-07T02:08:14;5.50;;;2.95;;
78877;SDS011;68257;43.514;1.498;2024-01-07T02:10:40;6.75;;;3.10;;
78877;SDS011;68257;43.514;1.498;2024-01-07T02:13:06;5.07;;;2.77;;
78877;SDS011;68257;43.514;1.498;2024-01-07T02:15:31;7.47;;;3.03;;
78877;SDS011;68257;43.514;1.498;2024-01-07T02:17:57;5.43;;;2.87;;
78877;SDS011;68257;43.514;1.498;2024-01-07T02:20:22;6.33;;;2.90;;
78877;SDS011;68257;43.514;1.498;2024-01-07T02:22:48;5.28;;;2.83;;
78877;SDS011;68257;43.514;1.498;2024-01-07T02:25:13;6.47;;;3.03;;
78877;SDS011;68257;43.514;1.498;2024-01-07T02:27:39;5.17;;;2.80;;
78877;SDS011;68257;43.514;1.498;2024-01-07T02:30:04;6.00;;;3.00;;
78877;SDS011;68257;43.514;1.498;2024-01-07T02:32:30;5.73;;;2.80;;
78877;SDS011;68257;43.514;1.498;2024-01-07T02:35:01;6.00;;;2.90;;
78877;SDS011;68257;43.514;1.498;2024-01-07T02:37:26;5.22;;;3.08;;
78877;SDS011;68257;43.514;1.498;2024-01-07T02:39:51;5.47;;;2.80;;
78877;SDS011;68257;43.514;1.498;2024-01-07T02:42:17;6.00;;;3.40;;
78877;SDS011;68257;43.514;1.498;2024-01-07T02:44:42;5.33;;;3.00;;
78877;SDS011;68257;43.514;1.498;2024-01-07T02:47:08;4.77;;;3.00;;
78877;SDS011;68257;43.514;1.498;2024-01-07T02:49:33;4.67;;;3.07;;
78877;SDS011;68257;43.514;1.498;2024-01-07T02:51:59;7.10;;;2.90;;
78877;SDS011;68257;43.514;1.498;2024-01-07T02:54:24;6.73;;;3.00;;
78877;SDS011;68257;43.514;1.498;2024-01-07T02:56:49;7.50;;;3.10;;
78877;SDS011;68257;43.514;1.498;2024-01-07T02:59:15;5.33;;;2.87;;
78877;SDS011;68257;43.514;1.498;2024-01-07T03:01:40;11.03;;;3.00;;
78877;SDS011;68257;43.514;1.498;2024-01-07T03:04:06;6.00;;;3.35;;
78877;SDS011;68257;43.514;1.498;2024-01-07T03:06:32;6.93;;;3.20;;
78877;SDS011;68257;43.514;1.498;2024-01-07T03:08:58;4.57;;;2.80;;
78877;SDS011;68257;43.514;1.498;2024-01-07T03:11:23;5.83;;;3.43;;
78877;SDS011;68257;43.514;1.498;2024-01-07T03:13:49;5.27;;;2.97;;
78877;SDS011;68257;43.514;1.498;2024-01-07T03:16:24;5.43;;;2.87;;
78877;SDS011;68257;43.514;1.498;2024-01-07T03:18:50;6.20;;;3.17;;
78877;SDS011;68257;43.514;1.498;2024-01-07T03:23:44;6.18;;;3.20;;
78877;SDS011;68257;43.514;1.498;2024-01-07T03:26:10;5.70;;;3.07;;
78877;SDS011;68257;43.514;1.498;2024-01-07T03:28:35;5.10;;;2.83;;
78877;SDS011;68257;43.514;1.498;2024-01-07T03:31:03;6.93;;;3.23;;
78877;SDS011;68257;43.514;1.498;2024-01-07T03:33:37;6.10;;;2.88;;
78877;SDS011;68257;43.514;1.498;2024-01-07T03:36:06;6.63;;;2.90;;
78877;SDS011;68257;43.514;1.498;2024-01-07T03:38:32;5.90;;;3.53;;
78877;SDS011;68257;43.514;1.498;2024-01-07T03:40:57;4.33;;;2.90;;
78877;SDS011;68257;43.514;1.498;2024-01-07T03:43:23;6.80;;;3.23;;
78877;SDS011;68257;43.514;1.498;2024-01-07T03:45:48;4.87;;;2.70;;
78877;SDS011;68257;43.514;1.498;2024-01-07T03:48:14;6.10;;;3.00;;
78877;SDS011;68257;43.514;1.498;2024-01-07T03:50:40;4.37;;;2.77;;
78877;SDS011;68257;43.514;1.498;2024-01-07T03:53:05;6.57;;;2.80;;
78877;SDS011;68257;43.514;1.498;2024-01-07T03:55:30;4.70;;;2.80;;
78877;SDS011;68257;43.514;1.498;2024-01-07T03:57:56;6.47;;;2.90;;
78877;SDS011;68257;43.514;1.498;2024-01-07T04:00:21;7.00;;;3.10;;
78877;SDS011;68257;43.514;1.498;2024-01-07T04:02:46;4.97;;;2.40;;
78877;SDS011;68257;43.514;1.498;2024-01-07T04:05:12;6.13;;;2.77;;
78877;SDS011;68257;43.514;1.498;2024-01-07T04:07:40;7.15;;;2.90;;
78877;SDS011;68257;43.514;1.498;2024-01-07T04:10:05;5.27;;;2.37;;
78877;SDS011;68257;43.514;1.498;2024-01-07T04:12:31;6.23;;;2.97;;
78877;SDS011;68257;43.514;1.498;2024-01-07T04:14:56;5.00;;;2.88;;
78877;SDS011;68257;43.514;1.498;2024-01-07T04:17:22;4.70;;;2.70;;
78877;SDS011;68257;43.514;1.498;2024-01-07T04:19:48;6.50;;;3.00;;
78877;SDS011;68257;43.514;1.498;2024-01-07T04:22:14;5.93;;;3.13;;
78877;SDS011;68257;43.514;1.498;2024-01-07T04:24:42;5.37;;;2.90;;
78877;SDS011;68257;43.514;1.498;2024-01-07T04:27:07;7.30;;;3.00;;
78877;SDS011;68257;43.514;1.498;2024-01-07T04:29:33;6.40;;;2.93;;
78877;SDS011;68257;43.514;1.498;2024-01-07T04:31:58;6.67;;;3.33;;
78877;SDS011;68257;43.514;1.498;2024-01-07T04:34:23;5.77;;;2.77;;
78877;SDS011;68257;43.514;1.498;2024-01-07T04:36:49;4.80;;;2.67;;
78877;SDS011;68257;43.514;1.498;2024-01-07T04:39:15;4.80;;;2.90;;
78877;SDS011;68257;43.514;1.498;2024-01-07T04:41:40;5.63;;;2.60;;
78877;SDS011;68257;43.514;1.498;2024-01-07T04:44:06;5.07;;;2.80;;
78877;SDS011;68257;43.514;1.498;2024-01-07T04:46:33;5.70;;;2.53;;
78877;SDS011;68257;43.514;1.498;2024-01-07T04:49:00;5.43;;;2.60;;
78877;SDS011;68257;43.514;1.498;2024-01-07T04:51:26;4.90;;;2.47;;
78877;SDS011;68257;43.514;1.498;2024-01-07T04:53:51;4.93;;;2.73;;
78877;SDS011;68257;43.514;1.498;2024-01-07T04:56:16;5.37;;;3.30;;
78877;SDS011;68257;43.514;1.498;2024-01-07T04:58:42;4.90;;;2.80;;
78877;SDS011;68257;43.514;1.498;2024-01-07T05:01:07;4.78;;;2.75;;
78877;SDS011;68257;43.514;1.498;2024-01-07T05:03:32;5.10;;;2.55;;
78877;SDS011;68257;43.514;1.498;2024-01-07T05:05:59;5.10;;;2.80;;
78877;SDS011;68257;43.514;1.498;2024-01-07T05:08:24;4.45;;;2.50;;
78877;SDS011;68257;43.514;1.498;2024-01-07T05:10:49;6.67;;;2.73;;
78877;SDS011;68257;43.514;1.498;2024-01-07T05:13:15;5.50;;;2.90;;
78877;SDS011;68257;43.514;1.498;2024-01-07T05:15:40;5.13;;;2.60;;
78877;SDS011;68257;43.514;1.498;2024-01-07T05:18:09;5.27;;;2.80;;
78877;SDS011;68257;43.514;1.498;2024-01-07T05:20:34;5.28;;;2.55;;
78877;SDS011;68257;43.514;1.498;2024-01-07T05:23:00;4.63;;;2.50;;
78877;SDS011;68257;43.514;1.498;2024-01-07T05:25:25;5.73;;;2.60;;
78877;SDS011;68257;43.514;1.498;2024-01-07T05:27:51;5.30;;;2.60;;
78877;SDS011;68257;43.514;1.498;2024-01-07T05:30:16;5.20;;;2.67;;
78877;SDS011;68257;43.514;1.498;2024-01-07T05:32:41;6.60;;;2.80;;
78877;SDS011;68257;43.514;1.498;2024-01-07T05:35:07;6.10;;;2.90;;
78877;SDS011;68257;43.514;1.498;2024-01-07T05:37:33;5.57;;;2.92;;
78877;SDS011;68257;43.514;1.498;2024-01-07T05:39:58;6.37;;;2.53;;
78877;SDS011;68257;43.514;1.498;2024-01-07T05:42:24;5.23;;;2.70;;
78877;SDS011;68257;43.514;1.498;2024-01-07T05:44:50;5.03;;;2.63;;
78877;SDS011;68257;43.514;1.498;2024-01-07T05:47:15;6.15;;;3.08;;
78877;SDS011;68257;43.514;1.498;2024-01-07T05:49:41;6.10;;;2.75;;
78877;SDS011;68257;43.514;1.498;2024-01-07T05:52:07;5.17;;;3.03;;
78877;SDS011;68257;43.514;1.498;2024-01-07T05:54:32;6.67;;;2.80;;
78877;SDS011;68257;43.514;1.498;2024-01-07T05:56:57;7.50;;;3.07;;
78877;SDS011;68257;43.514;1.498;2024-01-07T05:59:24;5.10;;;2.75;;
78877;SDS011;68257;43.514;1.498;2024-01-07T06:01:49;4.77;;;2.80;;
78877;SDS011;68257;43.514;1.498;2024-01-07T06:04:14;4.03;;;2.60;;
78877;SDS011;68257;43.514;1.498;2024-01-07T06:06:40;4.87;;;2.70;;
78877;SDS011;68257;43.514;1.498;2024-01-07T06:09:05;6.00;;;2.80;;
78877;SDS011;68257;43.514;1.498;2024-01-07T06:11:31;6.68;;;2.97;;
78877;SDS011;68257;43.514;1.498;2024-01-07T06:13:56;4.27;;;2.47;;
78877;SDS011;68257;43.514;1.498;2024-01-07T06:16:21;5.20;;;2.77;;
78877;SDS011;68257;43.514;1.498;2024-01-07T06:18:47;5.10;;;2.60;;
78877;SDS011;68257;43.514;1.498;2024-01-07T06:21:13;5.03;;;2.45;;
78877;SDS011;68257;43.514;1.498;2024-01-07T06:23:38;4.33;;;2.80;;
78877;SDS011;68257;43.514;1.498;2024-01-07T06:26:04;6.13;;;2.70;;
78877;SDS011;68257;43.514;1.498;2024-01-07T06:28:29;4.50;;;2.60;;
78877;SDS011;68257;43.514;1.498;2024-01-07T06:30:55;6.63;;;3.00;;
78877;SDS011;68257;43.514;1.498;2024-01-07T06:33:20;7.03;;;2.90;;
78877;SDS011;68257;43.514;1.498;2024-01-07T06:35:46;5.30;;;2.67;;
78877;SDS011;68257;43.514;1.498;2024-01-07T06:38:11;6.10;;;2.60;;
78877;SDS011;68257;43.514;1.498;2024-01-07T06:40:36;5.30;;;2.80;;
78877;SDS011;68257;43.514;1.498;2024-01-07T06:43:02;5.27;;;2.60;;
78877;SDS011;68257;43.514;1.498;2024-01-07T06:45:27;5.37;;;2.73;;
78877;SDS011;68257;43.514;1.498;2024-01-07T06:47:53;5.20;;;2.53;;
78877;SDS011;68257;43.514;1.498;2024-01-07T06:50:19;4.78;;;2.45;;
78877;SDS011;68257;43.514;1.498;2024-01-07T06:52:45;5.57;;;3.03;;
78877;SDS011;68257;43.514;1.498;2024-01-07T06:55:11;4.77;;;2.23;;
78877;SDS011;68257;43.514;1.498;2024-01-07T06:57:36;5.23;;;2.63;;
78877;SDS011;68257;43.514;1.498;2024-01-07T07:00:02;5.83;;;2.47;;
78877;SDS011;68257;43.514;1.498;2024-01-07T07:02:28;5.38;;;2.65;;
78877;SDS011;68257;43.514;1.498;2024-01-07T07:04:53;6.88;;;2.65;;
78877;SDS011;68257;43.514;1.498;2024-01-07T07:07:18;5.68;;;2.50;;
78877;SDS011;68257;43.514;1.498;2024-01-07T07:09:44;6.67;;;2.47;;
78877;SDS011;68257;43.514;1.498;2024-01-07T07:12:11;7.10;;;3.20;;
78877;SDS011;68257;43.514;1.498;2024-01-07T07:14:37;6.03;;;2.88;;
78877;SDS011;68257;43.514;1.498;2024-01-07T07:17:02;4.80;;;2.47;;
78877;SDS011;68257;43.514;1.498;2024-01-07T07:19:28;5.87;;;2.80;;
78877;SDS011;68257;43.514;1.498;2024-01-07T07:21:53;5.20;;;2.87;;
78877;SDS011;68257;43.514;1.498;2024-01-07T07:24:19;5.13;;;2.70;;
78877;SDS011;68257;43.514;1.498;2024-01-07T07:26:44;4.83;;;2.70;;
78877;SDS011;68257;43.514;1.498;2024-01-07T07:29:09;6.25;;;2.88;;
78877;SDS011;68257;43.514;1.498;2024-01-07T07:31:35;5.20;;;2.63;;
78877;SDS011;68257;43.514;1.498;2024-01-07T07:34:02;5.15;;;2.78;;
78877;SDS011;68257;43.514;1.498;2024-01-07T07:36:31;5.70;;;3.40;;
78877;SDS011;68257;43.514;1.498;2024-01-07T07:38:57;5.22;;;3.17;;
78877;SDS011;68257;43.514;1.498;2024-01-07T07:41:22;5.23;;;2.90;;
78877;SDS011;68257;43.514;1.498;2024-01-07T07:43:48;4.63;;;2.30;;
78877;SDS011;68257;43.514;1.498;2024-01-07T07:46:16;4.80;;;2.50;;
78877;SDS011;68257;43.514;1.498;2024-01-07T07:48:41;4.90;;;2.63;;
78877;SDS011;68257;43.514;1.498;2024-01-07T07:51:07;4.97;;;2.50;;
78877;SDS011;68257;43.514;1.498;2024-01-07T07:53:32;5.70;;;2.83;;
78877;SDS011;68257;43.514;1.498;2024-01-07T07:55:58;5.37;;;2.83;;
78877;SDS011;68257;43.514;1.498;2024-01-07T07:58:24;5.18;;;2.60;;
78877;SDS011;68257;43.514;1.498;2024-01-07T08:00:49;5.07;;;2.60;;
78877;SDS011;68257;43.514;1.498;2024-01-07T08:03:14;5.73;;;2.57;;
78877;SDS011;68257;43.514;1.498;2024-01-07T08:05:40;4.45;;;2.53;;
78877;SDS011;68257;43.514;1.498;2024-01-07T08:08:07;4.72;;;2.50;;
78877;SDS011;68257;43.514;1.498;2024-01-07T08:10:32;4.30;;;2.28;;
78877;SDS011;68257;43.514;1.498;2024-01-07T08:12:59;5.33;;;2.87;;
78877;SDS011;68257;43.514;1.498;2024-01-07T08:15:25;4.85;;;2.42;;
78877;SDS011;68257;43.514;1.498;2024-01-07T08:17:51;4.93;;;2.20;;
78877;SDS011;68257;43.514;1.498;2024-01-07T08:20:16;4.90;;;2.30;;
78877;SDS011;68257;43.514;1.498;2024-01-07T08:22:42;5.90;;;2.60;;
78877;SDS011;68257;43.514;1.498;2024-01-07T08:25:07;4.87;;;2.30;;
78877;SDS011;68257;43.514;1.498;2024-01-07T08:27:33;5.70;;;3.10;;
78877;SDS011;68257;43.514;1.498;2024-01-07T08:29:59;6.05;;;3.03;;
78877;SDS011;68257;43.514;1.498;2024-01-07T08:32:24;5.30;;;3.10;;
78877;SDS011;68257;43.514;1.498;2024-01-07T08:34:50;5.03;;;2.70;;
78877;SDS011;68257;43.514;1.498;2024-01-07T08:37:15;5.53;;;2.65;;
78877;SDS011;68257;43.514;1.498;2024-01-07T08:39:41;6.17;;;2.87;;
78877;SDS011;68257;43.514;1.498;2024-01-07T08:42:06;6.13;;;2.57;;
78877;SDS011;68257;43.514;1.498;2024-01-07T08:44:31;5.10;;;2.70;;
78877;SDS011;68257;43.514;1.498;2024-01-07T08:46:57;6.43;;;3.03;;
78877;SDS011;68257;43.514;1.498;2024-01-07T08:49:22;7.25;;;3.30;;
78877;SDS011;68257;43.514;1.498;2024-01-07T08:51:48;5.53;;;2.63;;
78877;SDS011;68257;43.514;1.498;2024-01-07T08:54:13;6.67;;;2.90;;
78877;SDS011;68257;43.514;1.498;2024-01-07T08:56:39;5.70;;;2.60;;
78877;SDS011;68257;43.514;1.498;2024-01-07T08:59:04;6.30;;;2.95;;
78877;SDS011;68257;43.514;1.498;2024-01-07T09:01:30;6.87;;;3.50;;
78877;SDS011;68257;43.514;1.498;2024-01-07T09:03:55;5.10;;;2.90;;
78877;SDS011;68257;43.514;1.498;2024-01-07T09:06:20;5.50;;;2.80;;
78877;SDS011;68257;43.514;1.498;2024-01-07T09:08:46;4.57;;;2.33;;
78877;SDS011;68257;43.514;1.498;2024-01-07T09:11:11;5.13;;;2.77;;
78877;SDS011;68257;43.514;1.498;2024-01-07T09:13:37;5.90;;;3.13;;
78877;SDS011;68257;43.514;1.498;2024-01-07T09:16:03;7.23;;;3.13;;
78877;SDS011;68257;43.514;1.498;2024-01-07T09:18:29;6.03;;;3.17;;
78877;SDS011;68257;43.514;1.498;2024-01-07T09:20:55;4.72;;;2.50;;
78877;SDS011;68257;43.514;1.498;2024-01-07T09:23:21;6.43;;;2.53;;
78877;SDS011;68257;43.514;1.498;2024-01-07T09:25:47;5.35;;;2.65;;
78877;SDS011;68257;43.514;1.498;2024-01-07T09:28:12;5.47;;;2.93;;
78877;SDS011;68257;43.514;1.498;2024-01-07T09:30:38;6.03;;;3.20;;
78877;SDS011;68257;43.514;1.498;2024-01-07T09:33:03;7.75;;;3.20;;
78877;SDS011;68257;43.514;1.498;2024-01-07T09:35:29;5.70;;;2.80;;
78877;SDS011;68257;43.514;1.498;2024-01-07T09:37:54;5.70;;;3.00;;
78877;SDS011;68257;43.514;1.498;2024-01-07T09:40:20;7.17;;;3.37;;
78877;SDS011;68257;43.514;1.498;2024-01-07T09:42:46;5.67;;;3.30;;
78877;SDS011;68257;43.514;1.498;2024-01-07T09:45:12;6.22;;;3.00;;
78877;SDS011;68257;43.514;1.498;2024-01-07T09:47:38;7.68;;;3.80;;
78877;SDS011;68257;43.514;1.498;2024-01-07T09:50:06;5.80;;;2.95;;
78877;SDS011;68257;43.514;1.498;2024-01-07T09:52:32;5.60;;;3.20;;
78877;SDS011;68257;43.514;1.498;2024-01-07T09:55:00;4.70;;;2.83;;
78877;SDS011;68257;43.514;1.498;2024-01-07T09:57:28;5.70;;;2.88;;
78877;SDS011;68257;43.514;1.498;2024-01-07T09:59:54;5.60;;;2.60;;
78877;SDS011;68257;43.514;1.498;2024-01-07T10:02:19;4.50;;;2.60;;
78877;SDS011;68257;43.514;1.498;2024-01-07T10:04:45;5.55;;;2.90;;
78877;SDS011;68257;43.514;1.498;2024-01-07T10:07:13;4.20;;;2.60;;
78877;SDS011;68257;43.514;1.498;2024-01-07T10:09:40;4.77;;;2.53;;
78877;SDS011;68257;43.514;1.498;2024-01-07T10:12:07;5.05;;;3.08;;
78877;SDS011;68257;43.514;1.498;2024-01-07T10:14:33;4.60;;;2.00;;
78877;SDS011;68257;43.514;1.498;2024-01-07T10:17:00;4.22;;;2.20;;
78877;SDS011;68257;43.514;1.498;2024-01-07T10:19:26;4.30;;;2.00;;
78877;SDS011;68257;43.514;1.498;2024-01-07T10:22:01;5.10;;;2.47;;
78877;SDS011;68257;43.514;1.498;2024-01-07T10:24:38;4.15;;;2.05;;
78877;SDS011;68257;43.514;1.498;2024-01-07T10:27:04;6.27;;;1.70;;
78877;SDS011;68257;43.514;1.498;2024-01-07T10:29:30;5.15;;;2.30;;
78877;SDS011;68257;43.514;1.498;2024-01-07T10:32:00;5.45;;;2.35;;
78877;SDS011;68257;43.514;1.498;2024-01-07T10:34:28;6.32;;;2.60;;
78877;SDS011;68257;43.514;1.498;2024-01-07T10:36:58;4.38;;;2.50;;
78877;SDS011;68257;43.514;1.498;2024-01-07T10:39:24;4.77;;;2.10;;
78877;SDS011;68257;43.514;1.498;2024-01-07T10:41:50;4.30;;;2.20;;
78877;SDS011;68257;43.514;1.498;2024-01-07T10:44:18;6.10;;;2.40;;
78877;SDS011;68257;43.514;1.498;2024-01-07T10:46:44;5.80;;;2.60;;
78877;SDS011;68257;43.514;1.498;2024-01-07T10:49:19;7.40;;;2.20;;
78877;SDS011;68257;43.514;1.498;2024-01-07T10:51:46;4.38;;;2.42;;
78877;SDS011;68257;43.514;1.498;2024-01-07T10:54:36;5.95;;;2.50;;
78877;SDS011;68257;43.514;1.498;2024-01-07T10:59:30;4.73;;;2.50;;
78877;SDS011;68257;43.514;1.498;2024-01-07T11:01:57;6.35;;;2.70;;
78877;SDS011;68257;43.514;1.498;2024-01-07T11:04:29;6.72;;;2.92;;
78877;SDS011;68257;43.514;1.498;2024-01-07T11:07:09;7.90;;;2.90;;
78877;SDS011;68257;43.514;1.498;2024-01-07T11:09:43;6.90;;;2.80;;
78877;SDS011;68257;43.514;1.498;2024-01-07T11:12:13;5.43;;;2.30;;
78877;SDS011;68257;43.514;1.498;2024-01-07T11:14:39;6.25;;;2.70;;
78877;SDS011;68257;43.514;1.498;2024-01-07T11:17:07;6.07;;;2.60;;
78877;SDS011;68257;43.514;1.498;2024-01-07T11:19:32;5.93;;;2.58;;
78877;SDS011;68257;43.514;1.498;2024-01-07T11:24:47;4.90;;;2.15;;
78877;SDS011;68257;43.514;1.498;2024-01-07T11:27:12;5.03;;;2.30;;
78877;SDS011;68257;43.514;1.498;2024-01-07T11:29:38;3.90;;;2.17;;
78877;SDS011;68257;43.514;1.498;2024-01-07T11:32:03;4.87;;;2.17;;
78877;SDS011;68257;43.514;1.498;2024-01-07T11:34:40;4.32;;;2.08;;
78877;SDS011;68257;43.514;1.498;2024-01-07T11:37:11;5.13;;;2.10;;
78877;SDS011;68257;43.514;1.498;2024-01-07T11:39:38;5.10;;;2.10;;
78877;SDS011;68257;43.514;1.498;2024-01-07T11:42:04;4.20;;;1.93;;
78877;SDS011;68257;43.514;1.498;2024-01-07T11:44:29;4.50;;;2.10;;
78877;SDS011;68257;43.514;1.498;2024-01-07T11:46:59;4.40;;;2.00;;
78877;SDS011;68257;43.514;1.498;2024-01-07T11:49:24;3.63;;;1.90;;
78877;SDS011;68257;43.514;1.498;2024-01-07T11:51:49;5.63;;;2.43;;
78877;SDS011;68257;43.514;1.498;2024-01-07T11:54:15;5.87;;;2.10;;
78877;SDS011;68257;43.514;1.498;2024-01-07T11:56:40;6.30;;;2.10;;
78877;SDS011;68257;43.514;1.498;2024-01-07T11:59:06;4.70;;;1.90;;
78877;SDS011;68257;43.514;1.498;2024-01-07T12:01:31;4.37;;;1.83;;
78877;SDS011;68257;43.514;1.498;2024-01-07T12:03:57;4.18;;;2.03;;
78877;SDS011;68257;43.514;1.498;2024-01-07T12:06:24;5.18;;;2.30;;
78877;SDS011;68257;43.514;1.498;2024-01-07T12:08:50;6.50;;;2.30;;
78877;SDS011;68257;43.514;1.498;2024-01-07T12:11:15;6.43;;;2.80;;
78877;SDS011;68257;43.514;1.498;2024-01-07T12:13:41;7.35;;;3.22;;
78877;SDS011;68257;43.514;1.498;2024-01-07T12:16:07;5.95;;;2.80;;
78877;SDS011;68257;43.514;1.498;2024-01-07T12:18:36;7.05;;;2.97;;
78877;SDS011;68257;43.514;1.498;2024-01-07T12:21:01;6.22;;;3.08;;
78877;SDS011;68257;43.514;1.498;2024-01-07T12:23:27;4.50;;;1.80;;
78877;SDS011;68257;43.514;1.498;2024-01-07T12:25:53;6.17;;;2.10;;
78877;SDS011;68257;43.514;1.498;2024-01-07T12:28:18;5.97;;;2.20;;
78877;SDS011;68257;43.514;1.498;2024-01-07T12:30:44;5.80;;;2.20;;
78877;SDS011;68257;43.514;1.498;2024-01-07T12:33:10;6.47;;;2.78;;
78877;SDS011;68257;43.514;1.498;2024-01-07T12:35:36;6.23;;;2.73;;
78877;SDS011;68257;43.514;1.498;2024-01-07T12:38:01;7.50;;;3.33;;
78877;SDS011;68257;43.514;1.498;2024-01-07T12:40:27;14.75;;;5.25;;
78877;SDS011;68257;43.514;1.498;2024-01-07T12:42:53;11.33;;;4.63;;
78877;SDS011;68257;43.514;1.498;2024-01-07T12:45:18;10.48;;;4.68;;
78877;SDS011;68257;43.514;1.498;2024-01-07T12:47:44;5.90;;;2.97;;
78877;SDS011;68257;43.514;1.498;2024-01-07T12:50:10;5.75;;;2.63;;
78877;SDS011;68257;43.514;1.498;2024-01-07T12:52:36;5.90;;;2.47;;
78877;SDS011;68257;43.514;1.498;2024-01-07T12:55:03;5.03;;;2.50;;
78877;SDS011;68257;43.514;1.498;2024-01-07T12:57:29;5.45;;;2.53;;
78877;SDS011;68257;43.514;1.498;2024-01-07T12:59:54;6.60;;;2.83;;
78877;SDS011;68257;43.514;1.498;2024-01-07T13:02:20;4.70;;;2.10;;
78877;SDS011;68257;43.514;1.498;2024-01-07T13:04:45;4.60;;;2.30;;
78877;SDS011;68257;43.514;1.498;2024-01-07T13:07:11;5.68;;;2.47;;
78877;SDS011;68257;43.514;1.498;2024-01-07T13:09:36;4.30;;;2.27;;
78877;SDS011;68257;43.514;1.498;2024-01-07T13:12:02;6.10;;;2.40;;
78877;SDS011;68257;43.514;1.498;2024-01-07T13:14:29;4.53;;;2.40;;
78877;SDS011;68257;43.514;1.498;2024-01-07T13:16:54;7.00;;;3.70;;
78877;SDS011;68257;43.514;1.498;2024-01-07T13:19:19;4.40;;;2.50;;
78877;SDS011;68257;43.514;1.498;2024-01-07T13:21:45;9.73;;;3.50;;
78877;SDS011;68257;43.514;1.498;2024-01-07T13:24:11;7.50;;;3.40;;
78877;SDS011;68257;43.514;1.498;2024-01-07T13:26:36;4.77;;;2.30;;
78877;SDS011;68257;43.514;1.498;2024-01-07T13:29:02;4.27;;;1.80;;
78877;SDS011;68257;43.514;1.498;2024-01-07T13:31:28;4.30;;;1.73;;
78877;SDS011;68257;43.514;1.498;2024-01-07T13:33:54;5.85;;;2.10;;
78877;SDS011;68257;43.514;1.498;2024-01-07T13:36:19;4.97;;;1.83;;
78877;SDS011;68257;43.514;1.498;2024-01-07T13:38:45;6.27;;;2.10;;
78877;SDS011;68257;43.514;1.498;2024-01-07T13:41:11;4.57;;;1.77;;
78877;SDS011;68257;43.514;1.498;2024-01-07T13:43:39;5.57;;;2.33;;
78877;SDS011;68257;43.514;1.498;2024-01-07T13:46:05;6.80;;;2.60;;
78877;SDS011;68257;43.514;1.498;2024-01-07T13:48:31;5.22;;;1.95;;
78877;SDS011;68257;43.514;1.498;2024-01-07T13:50:56;5.17;;;2.00;;
78877;SDS011;68257;43.514;1.498;2024-01-07T13:53:23;5.30;;;2.20;;
78877;SDS011;68257;43.514;1.498;2024-01-07T13:55:48;5.97;;;1.93;;
78877;SDS011;68257;43.514;1.498;2024-01-07T13:58:14;5.33;;;2.60;;
78877;SDS011;68257;43.514;1.498;2024-01-07T14:00:40;4.38;;;2.17;;
78877;SDS011;68257;43.514;1.498;2024-01-07T14:03:06;4.30;;;1.65;;
78877;SDS011;68257;43.514;1.498;2024-01-07T14:05:31;4.00;;;1.80;;
78877;SDS011;68257;43.514;1.498;2024-01-07T14:07:57;4.47;;;1.87;;
78877;SDS011;68257;43.514;1.498;2024-01-07T14:10:22;4.70;;;2.00;;
78877;SDS011;68257;43.514;1.498;2024-01-07T14:12:48;5.07;;;1.90;;
78877;SDS011;68257;43.514;1.498;2024-01-07T14:15:13;5.82;;;1.92;;
78877;SDS011;68257;43.514;1.498;2024-01-07T14:17:38;3.90;;;2.10;;
78877;SDS011;68257;43.514;1.498;2024-01-07T14:20:05;3.97;;;1.97;;
78877;SDS011;68257;43.514;1.498;2024-01-07T14:22:32;4.78;;;1.55;;
78877;SDS011;68257;43.514;1.498;2024-01-07T14:24:58;3.73;;;1.60;;
78877;SDS011;68257;43.514;1.498;2024-01-07T14:27:23;4.75;;;1.90;;
78877;SDS011;68257;43.514;1.498;2024-01-07T14:29:48;4.25;;;1.80;;
78877;SDS011;68257;43.514;1.498;2024-01-07T14:32:14;3.43;;;1.40;;
78877;SDS011;68257;43.514;1.498;2024-01-07T14:34:39;3.33;;;1.50;;
78877;SDS011;68257;43.514;1.498;2024-01-07T14:37:13;4.13;;;1.63;;
78877;SDS011;68257;43.514;1.498;2024-01-07T14:39:39;4.00;;;1.60;;
78877;SDS011;68257;43.514;1.498;2024-01-07T14:42:05;5.20;;;1.90;;
78877;SDS011;68257;43.514;1.498;2024-01-07T14:44:30;4.15;;;1.83;;
78877;SDS011;68257;43.514;1.498;2024-01-07T14:46:56;3.67;;;1.53;;
78877;SDS011;68257;43.514;1.498;2024-01-07T14:49:21;4.17;;;1.53;;